Time;durP1;ratioP1;P1;durP2;ratioP2;P2;SDS_P1;SDS_P2;PMS_P1;PMS_P2;Temp;Humidity;BMP_temperature;BMP_pressure;BME280_temperature;BME280_humidity;BME280_pressure;Samples;Min_cycle;Max_cycle;Signal;HPM_P1;HPM_P2
2023/10/26 00:01:25;;;;;;;19.80;6.25;;;;;;;;;;10287614;28;20627;-65
2023/10/26 00:06:23;;;;;;;22.40;7.80;;;;;;;;;;10291022;28;20072;-65
2023/10/26 00:11:21;;;;;;;20.77;5.78;;;;;;;;;;10289474;28;20465;-66
2023/10/26 00:16:19;;;;;;;20.33;6.78;;;;;;;;;;10290324;28;20544;-67
2023/10/26 00:21:20;;;;;;;18.67;5.75;;;;;;;;;;10291447;28;20150;-65
2023/10/26 00:26:19;;;;;;;22.25;6.13;;;;;;;;;;10298676;28;20083;-66
2023/10/26 00:31:20;;;;;;;20.05;6.25;;;;;;;;;;10298642;28;20528;-66
2023/10/26 00:36:19;;;;;;;26.77;7.68;;;;;;;;;;10297642;28;20076;-66
2023/10/26 00:41:18;;;;;;;14.57;5.97;;;;;;;;;;10311216;28;20516;-65
2023/10/26 00:46:16;;;;;;;17.95;6.78;;;;;;;;;;10294708;28;20506;-64
2023/10/26 00:51:15;;;;;;;18.80;5.93;;;;;;;;;;10296475;28;20075;-66
2023/10/26 00:56:15;;;;;;;22.67;6.85;;;;;;;;;;10294833;28;20080;-66
2023/10/26 01:01:13;;;;;;;23.33;6.35;;;;;;;;;;10295415;28;20079;-65
2023/10/26 01:06:11;;;;;;;21.70;6.90;;;;;;;;;;10297589;28;20092;-66
2023/10/26 01:11:10;;;;;;;25.52;7.47;;;;;;;;;;10296958;28;20076;-65
2023/10/26 01:16:10;;;;;;;15.52;5.82;;;;;;;;;;10295359;28;20049;-65
2023/10/26 01:21:10;;;;;;;19.58;6.57;;;;;;;;;;10295419;28;20060;-65
2023/10/26 01:26:09;;;;;;;18.17;6.50;;;;;;;;;;10293381;28;20072;-66
2023/10/26 01:31:07;;;;;;;20.10;6.18;;;;;;;;;;10295474;28;20515;-65
2023/10/26 01:36:06;;;;;;;24.58;6.80;;;;;;;;;;10295567;28;20072;-65
2023/10/26 01:41:05;;;;;;;20.00;6.25;;;;;;;;;;10294877;28;20716;-65
2023/10/26 01:46:05;;;;;;;25.00;6.45;;;;;;;;;;10295992;28;20186;-65
2023/10/26 01:51:03;;;;;;;22.20;6.95;;;;;;;;;;10293802;28;20076;-65
2023/10/26 01:56:02;;;;;;;17.30;7.30;;;;;;;;;;10294483;28;20079;-65
2023/10/26 02:01:01;;;;;;;17.90;6.15;;;;;;;;;;10301480;28;20521;-65
2023/10/26 02:06:00;;;;;;;23.35;6.40;;;;;;;;;;10301641;28;20080;-65
2023/10/26 02:10:59;;;;;;;23.13;6.88;;;;;;;;;;10275795;28;20405;-66
2023/10/26 02:15:57;;;;;;;19.17;7.00;;;;;;;;;;10292075;28;20526;-66
2023/10/26 02:20:56;;;;;;;28.02;7.47;;;;;;;;;;10294744;28;20091;-65
2023/10/26 02:25:57;;;;;;;20.83;6.82;;;;;;;;;;10293717;28;20089;-65
2023/10/26 02:30:55;;;;;;;30.58;8.02;;;;;;;;;;10300251;28;20115;-66
2023/10/26 02:35:53;;;;;;;20.90;7.82;;;;;;;;;;10294640;28;20069;-65
2023/10/26 02:40:53;;;;;;;20.08;5.85;;;;;;;;;;10293053;28;20083;-65
2023/10/26 02:46:02;;;;;;;21.15;6.65;;;;;;;;;;10293065;28;20083;-65
2023/10/26 02:51:00;;;;;;;20.42;6.60;;;;;;;;;;10291504;28;20072;-65
2023/10/26 02:55:58;;;;;;;23.20;7.38;;;;;;;;;;10290137;28;20069;-65
2023/10/26 03:00:56;;;;;;;24.77;6.53;;;;;;;;;;10292003;28;20045;-65
2023/10/26 03:05:58;;;;;;;22.38;6.88;;;;;;;;;;10293295;28;20076;-65
2023/10/26 03:10:57;;;;;;;19.30;5.82;;;;;;;;;;10292803;28;20099;-65
2023/10/26 03:15:55;;;;;;;18.50;5.95;;;;;;;;;;10290949;28;20075;-66
2023/10/26 03:20:53;;;;;;;19.02;6.18;;;;;;;;;;10290012;28;20629;-66
2023/10/26 03:25:53;;;;;;;24.50;5.30;;;;;;;;;;10291288;28;20540;-66
2023/10/26 03:30:51;;;;;;;18.30;7.70;;;;;;;;;;10274668;28;20091;-66
2023/10/26 03:35:49;;;;;;;16.50;5.82;;;;;;;;;;10290652;28;20473;-66
2023/10/26 03:40:50;;;;;;;23.45;6.82;;;;;;;;;;10292350;28;20065;-65
2023/10/26 03:45:49;;;;;;;19.77;6.45;;;;;;;;;;10291674;28;20294;-65
2023/10/26 03:50:48;;;;;;;22.50;5.80;;;;;;;;;;10290611;28;20075;-65
2023/10/26 03:55:46;;;;;;;17.77;6.47;;;;;;;;;;10288370;28;20087;-66
2023/10/26 04:00:45;;;;;;;18.95;6.03;;;;;;;;;;10290850;28;20064;-64
2023/10/26 04:05:45;;;;;;;21.75;6.90;;;;;;;;;;10289394;28;20077;-66
2023/10/26 04:10:43;;;;;;;21.50;5.85;;;;;;;;;;10292049;28;20072;-65
2023/10/26 04:15:41;;;;;;;21.35;6.18;;;;;;;;;;10288414;28;20099;-66
2023/10/26 04:20:40;;;;;;;17.88;6.50;;;;;;;;;;10291730;28;20520;-66
2023/10/26 04:25:39;;;;;;;19.85;6.43;;;;;;;;;;10291209;28;20091;-64
2023/10/26 04:30:53;;;;;;;20.52;6.78;;;;;;;;;;10290012;28;20067;-65
2023/10/26 04:35:52;;;;;;;21.52;6.70;;;;;;;;;;10289780;28;20068;-65
2023/10/26 04:40:52;;;;;;;22.25;6.10;;;;;;;;;;10283012;28;20084;-65
2023/10/26 04:45:50;;;;;;;28.27;6.68;;;;;;;;;;10276409;28;20079;-65
2023/10/26 04:50:48;;;;;;;23.67;7.63;;;;;;;;;;10275318;28;20530;-64
2023/10/26 04:55:46;;;;;;;21.35;6.60;;;;;;;;;;10278929;28;20595;-65
2023/10/26 05:00:46;;;;;;;19.67;5.95;;;;;;;;;;10282621;28;20088;-65
2023/10/26 05:05:44;;;;;;;18.67;6.30;;;;;;;;;;10282446;28;20071;-65
2023/10/26 05:10:42;;;;;;;19.73;6.55;;;;;;;;;;10286572;28;20099;-64
2023/10/26 05:15:41;;;;;;;16.13;5.97;;;;;;;;;;10295790;28;20111;-65
2023/10/26 05:20:40;;;;;;;23.52;5.97;;;;;;;;;;10293889;28;20070;-65
2023/10/26 05:25:39;;;;;;;19.58;6.70;;;;;;;;;;10296141;28;20065;-65
2023/10/26 05:30:37;;;;;;;17.23;6.18;;;;;;;;;;10292966;28;20084;-65
2023/10/26 05:35:35;;;;;;;19.10;5.38;;;;;;;;;;10295277;28;20525;-65
2023/10/26 05:40:35;;;;;;;16.10;5.80;;;;;;;;;;10292393;28;20075;-65
2023/10/26 05:45:39;;;;;;;19.63;7.10;;;;;;;;;;10295022;28;20067;-64
2023/10/26 05:50:41;;;;;;;;;;;;;;;;;;10295983;28;20076;-65
2023/10/26 05:55:40;;;;;;;15.55;6.53;;;;;;;;;;10292419;28;19956;-65
2023/10/26 06:00:39;;;;;;;18.48;6.90;;;;;;;;;;10290227;28;20056;-65
2023/10/26 06:05:37;;;;;;;19.08;5.70;;;;;;;;;;10292700;28;20072;-65
2023/10/26 06:10:36;;;;;;;16.63;6.35;;;;;;;;;;10293303;28;20516;-66
2023/10/26 06:15:36;;;;;;;21.90;6.63;;;;;;;;;;10287232;28;20103;-65
2023/10/26 06:20:34;;;;;;;16.75;5.78;;;;;;;;;;10295439;28;20076;-65
2023/10/26 06:25:34;;;;;;;18.38;6.32;;;;;;;;;;10292242;28;20072;-66
2023/10/26 06:30:33;;;;;;;13.93;4.80;;;;;;;;;;10272755;28;20509;-63
2023/10/26 06:35:32;;;;;;;15.80;5.05;;;;;;;;;;10289059;28;20064;-65
2023/10/26 06:40:30;;;;;;;17.35;5.63;;;;;;;;;;10290213;28;20525;-66
2023/10/26 06:45:29;;;;;;;16.88;5.80;;;;;;;;;;10287113;28;20072;-66
2023/10/26 06:50:27;;;;;;;17.00;5.45;;;;;;;;;;10279499;28;20080;-66
2023/10/26 06:55:27;;;;;;;17.33;5.75;;;;;;;;;;10276526;28;20080;-65
2023/10/26 07:00:28;;;;;;;15.73;5.13;;;;;;;;;;10287128;28;20079;-65
2023/10/26 07:05:27;;;;;;;23.10;6.38;;;;;;;;;;10282193;28;20069;-65
2023/10/26 07:10:25;;;;;;;22.00;7.93;;;;;;;;;;10289681;28;20570;-65
2023/10/26 07:15:24;;;;;;;13.48;4.88;;;;;;;;;;10278375;28;20104;-65
2023/10/26 07:20:23;;;;;;;19.35;5.95;;;;;;;;;;10277661;28;20069;-64
2023/10/26 07:25:21;;;;;;;21.38;5.60;;;;;;;;;;10284529;28;20073;-65
2023/10/26 07:30:19;;;;;;;23.70;8.57;;;;;;;;;;10287299;28;20080;-65
2023/10/26 07:35:20;;;;;;;11.88;5.35;;;;;;;;;;10288636;28;20072;-65
2023/10/26 07:40:18;;;;;;;16.40;4.93;;;;;;;;;;10287372;28;20060;-65
2023/10/26 07:45:27;;;;;;;22.15;5.35;;;;;;;;;;10291548;28;20079;-65
2023/10/26 07:50:28;;;;;;;15.80;5.82;;;;;;;;;;10290909;28;20525;-65
2023/10/26 07:55:27;;;;;;;17.63;5.20;;;;;;;;;;10292401;28;20091;-66
2023/10/26 08:00:25;;;;;;;21.80;6.18;;;;;;;;;;10291026;28;20072;-66
2023/10/26 08:05:23;;;;;;;13.18;4.78;;;;;;;;;;10289449;28;20068;-66
2023/10/26 08:10:24;;;;;;;12.88;4.60;;;;;;;;;;10291932;28;20102;-65
2023/10/26 08:15:24;;;;;;;17.60;5.43;;;;;;;;;;10291446;28;20088;-65
2023/10/26 08:20:42;;;;;;;17.40;5.95;;;;;;;;;;10291220;28;20076;-65
2023/10/26 08:25:42;;;;;;;20.50;5.68;;;;;;;;;;10290229;28;20076;-65
2023/10/26 08:30:40;;;;;;;18.17;4.72;;;;;;;;;;10291659;28;20481;-65
2023/10/26 08:35:49;;;;;;;13.85;4.78;;;;;;;;;;10289170;28;20139;-66
2023/10/26 08:40:51;;;;;;;13.05;4.78;;;;;;;;;;10289497;28;20071;-66
2023/10/26 08:45:51;;;;;;;11.27;4.30;;;;;;;;;;10297308;28;20077;-66
2023/10/26 08:50:50;;;;;;;11.95;5.40;;;;;;;;;;10298016;28;20069;-67
2023/10/26 08:55:51;;;;;;;13.70;4.80;;;;;;;;;;10297202;28;20072;-66
2023/10/26 09:00:52;;;;;;;15.82;4.53;;;;;;;;;;10295733;28;20087;-65
2023/10/26 09:05:54;;;;;;;14.63;4.63;;;;;;;;;;10296708;28;20103;-66
2023/10/26 09:10:53;;;;;;;15.00;4.53;;;;;;;;;;10296762;28;20076;-65
2023/10/26 09:15:53;;;;;;;10.13;3.35;;;;;;;;;;10293221;28;20064;-66
2023/10/26 09:21:01;;;;;;;12.45;4.22;;;;;;;;;;10296729;28;20064;-67
2023/10/26 09:26:00;;;;;;;8.85;3.42;;;;;;;;;;10294659;28;20088;-66
2023/10/26 09:31:02;;;;;;;16.27;4.80;;;;;;;;;;10293340;28;20071;-66
2023/10/26 09:36:10;;;;;;;10.50;3.67;;;;;;;;;;10294940;28;20069;-65
2023/10/26 09:41:11;;;;;;;16.42;3.75;;;;;;;;;;10294186;28;20141;-65
2023/10/26 09:46:11;;;;;;;12.57;4.38;;;;;;;;;;10295350;28;20080;-65
2023/10/26 09:51:11;;;;;;;7.38;3.85;;;;;;;;;;10295286;28;20473;-65
2023/10/26 09:56:13;;;;;;;13.70;4.82;;;;;;;;;;10292830;28;20075;-65
2023/10/26 10:01:30;;;;;;;14.13;4.43;;;;;;;;;;10293397;28;20064;-66
2023/10/26 10:06:45;;;;;;;12.45;4.03;;;;;;;;;;10295393;28;20065;-65
2023/10/26 10:11:43;;;;;;;15.88;3.97;;;;;;;;;;10295181;28;20510;-65
2023/10/26 10:16:51;;;;;;;14.50;3.83;;;;;;;;;;10294513;28;20544;-66
2023/10/26 10:21:52;;;;;;;11.70;3.60;;;;;;;;;;10292939;28;20498;-65
2023/10/26 10:27:07;;;;;;;9.07;3.13;;;;;;;;;;10293511;28;20068;-66
2023/10/26 10:32:06;;;;;;;9.38;3.65;;;;;;;;;;10292550;28;20202;-66
2023/10/26 10:37:15;;;;;;;11.48;3.13;;;;;;;;;;10293207;28;20075;-67
2023/10/26 10:42:13;;;;;;;5.80;3.33;;;;;;;;;;10292534;28;20567;-67
2023/10/26 10:47:11;;;;;;;15.10;3.38;;;;;;;;;;10292472;28;20071;-67
2023/10/26 10:52:15;;;;;;;11.13;2.97;;;;;;;;;;10290452;28;20090;-67
2023/10/26 10:57:14;;;;;;;6.73;2.67;;;;;;;;;;10292577;28;20076;-65
2023/10/26 11:02:13;;;;;;;9.13;2.83;;;;;;;;;;10293101;28;20553;-65
2023/10/26 11:07:12;;;;;;;8.45;2.38;;;;;;;;;;10293659;28;20064;-65
2023/10/26 11:12:10;;;;;;;12.35;2.50;;;;;;;;;;10291718;28;20072;-65
2023/10/26 11:17:10;;;;;;;7.40;2.55;;;;;;;;;;10293436;28;20079;-66
2023/10/26 11:22:08;;;;;;;8.07;2.70;;;;;;;;;;10291597;28;20076;-65
2023/10/26 11:27:07;;;;;;;14.63;2.72;;;;;;;;;;10291800;28;20484;-65
2023/10/26 11:32:19;;;;;;;7.20;2.13;;;;;;;;;;10292065;28;20072;-66
2023/10/26 11:37:25;;;;;;;7.63;2.50;;;;;;;;;;10290969;28;20325;-65
2023/10/26 11:42:38;;;;;;;5.75;2.33;;;;;;;;;;10290143;28;20087;-66
2023/10/26 11:47:45;;;;;;;11.05;3.00;;;;;;;;;;10290624;28;20076;-66
2023/10/26 11:52:43;;;;;;;4.85;2.25;;;;;;;;;;10290538;28;20489;-66
2023/10/26 11:57:42;;;;;;;6.07;2.33;;;;;;;;;;10290981;28;20087;-65
2023/10/26 12:02:40;;;;;;;11.10;2.75;;;;;;;;;;10288980;28;20060;-66
2023/10/26 12:07:40;;;;;;;9.27;2.17;;;;;;;;;;10289437;28;20071;-65
2023/10/26 12:12:38;;;;;;;10.27;2.65;;;;;;;;;;10291776;28;20080;-66
2023/10/26 12:17:37;;;;;;;8.40;2.78;;;;;;;;;;10289802;28;20086;-65
2023/10/26 12:22:35;;;;;;;10.30;2.60;;;;;;;;;;10292158;28;20087;-65
2023/10/26 12:27:35;;;;;;;11.68;3.17;;;;;;;;;;10287394;28;20073;-66
2023/10/26 12:32:53;;;;;;;7.68;2.90;;;;;;;;;;10290593;28;20498;-65
2023/10/26 12:37:52;;;;;;;8.98;2.25;;;;;;;;;;10291089;28;20064;-66
2023/10/26 12:42:54;;;;;;;12.32;4.07;;;;;;;;;;10290235;28;20044;-66
2023/10/26 12:47:53;;;;;;;6.07;2.72;;;;;;;;;;10291682;28;20075;-66
2023/10/26 12:52:51;;;;;;;7.47;3.35;;;;;;;;;;10288270;28;20530;-66
2023/10/26 12:57:50;;;;;;;11.20;2.92;;;;;;;;;;10290118;28;20067;-66
2023/10/26 13:02:50;;;;;;;15.00;3.95;;;;;;;;;;10289181;28;20072;-66
2023/10/26 13:07:48;;;;;;;7.55;2.70;;;;;;;;;;10286822;28;20081;-66
2023/10/26 13:12:47;;;;;;;6.13;2.40;;;;;;;;;;10288959;28;20069;-66
2023/10/26 13:17:46;;;;;;;12.93;4.95;;;;;;;;;;10287874;28;20080;-66
2023/10/26 13:22:45;;;;;;;9.10;4.25;;;;;;;;;;10288969;28;20064;-66
2023/10/26 13:27:44;;;;;;;7.07;2.95;;;;;;;;;;10286091;28;20677;-66
2023/10/26 13:32:42;;;;;;;9.60;3.30;;;;;;;;;;10295643;28;20450;-65
2023/10/26 13:37:41;;;;;;;7.60;3.08;;;;;;;;;;10296704;28;20084;-66
2023/10/26 13:42:40;;;;;;;6.60;2.88;;;;;;;;;;10294555;28;20073;-66
2023/10/26 13:47:39;;;;;;;12.25;3.22;;;;;;;;;;10295681;28;20064;-66
2023/10/26 13:52:37;;;;;;;5.20;2.75;;;;;;;;;;10294003;28;20075;-65
2023/10/26 13:57:35;;;;;;;13.70;3.58;;;;;;;;;;10291728;28;20449;-66
2023/10/26 14:02:35;;;;;;;16.33;4.63;;;;;;;;;;10296570;28;20523;-66
2023/10/26 14:07:33;;;;;;;21.33;4.72;;;;;;;;;;10296615;28;20072;-66
2023/10/26 14:12:32;;;;;;;9.68;3.35;;;;;;;;;;10295692;28;20080;-64
2023/10/26 14:17:34;;;;;;;9.25;3.75;;;;;;;;;;10293997;28;20534;-67
2023/10/26 14:22:33;;;;;;;15.73;4.25;;;;;;;;;;10291514;28;20082;-68
2023/10/26 14:27:32;;;;;;;9.70;3.67;;;;;;;;;;10286218;28;20060;-64
2023/10/26 14:32:30;;;;;;;11.57;4.00;;;;;;;;;;10283826;28;20076;-66
2023/10/26 14:37:29;;;;;;;16.45;4.75;;;;;;;;;;10287143;28;20068;-65
2023/10/26 14:42:28;;;;;;;12.20;4.32;;;;;;;;;;10283032;28;20090;-65
2023/10/26 14:47:27;;;;;;;15.38;6.78;;;;;;;;;;10292638;28;20084;-66
2023/10/26 14:52:25;;;;;;;11.77;6.97;;;;;;;;;;10289050;28;20411;-67
2023/10/26 14:57:23;;;;;;;13.50;6.55;;;;;;;;;;10274265;28;20065;-67
2023/10/26 15:02:23;;;;;;;16.98;5.22;;;;;;;;;;10294111;28;20064;-65
2023/10/26 15:07:21;;;;;;;16.30;5.40;;;;;;;;;;10278745;28;20060;-66
2023/10/26 15:12:19;;;;;;;8.98;4.35;;;;;;;;;;10278644;28;20076;-67
2023/10/26 15:17:19;;;;;;;21.45;5.80;;;;;;;;;;10285519;28;20081;-65
2023/10/26 15:22:18;;;;;;;14.63;5.63;;;;;;;;;;10279520;28;20064;-66
2023/10/26 15:27:16;;;;;;;13.93;5.03;;;;;;;;;;10288744;28;20532;-65
2023/10/26 15:32:17;;;;;;;15.80;5.70;;;;;;;;;;10291023;28;20514;-65
2023/10/26 15:37:18;;;;;;;27.98;12.88;;;;;;;;;;10281353;28;20451;-66
2023/10/26 15:42:18;;;;;;;14.02;6.25;;;;;;;;;;10293593;28;20068;-67
2023/10/26 15:47:16;;;;;;;16.83;6.88;;;;;;;;;;10285432;28;20076;-65
2023/10/26 15:52:14;;;;;;;17.63;4.82;;;;;;;;;;10291692;28;20532;-66
2023/10/26 15:57:13;;;;;;;12.20;4.82;;;;;;;;;;10271393;28;20085;-66
2023/10/26 16:02:13;;;;;;;13.93;4.50;;;;;;;;;;10273855;28;20498;-66
2023/10/26 16:07:11;;;;;;;12.38;5.03;;;;;;;;;;10275383;28;20061;-66
2023/10/26 16:12:09;;;;;;;21.95;5.55;;;;;;;;;;10269208;28;20561;-66
2023/10/26 16:17:08;;;;;;;17.50;4.65;;;;;;;;;;10270269;28;20095;-65
2023/10/26 16:22:08;;;;;;;13.57;4.32;;;;;;;;;;10276525;28;20096;-66
2023/10/26 16:27:07;;;;;;;16.88;5.57;;;;;;;;;;10280282;28;20072;-65
2023/10/26 16:32:05;;;;;;;14.70;5.25;;;;;;;;;;10278269;28;20079;-65
2023/10/26 16:37:04;;;;;;;15.05;4.20;;;;;;;;;;10275729;28;20057;-65
2023/10/26 16:42:05;;;;;;;15.68;4.88;;;;;;;;;;10264963;28;20095;-65
2023/10/26 16:47:04;;;;;;;17.98;5.53;;;;;;;;;;10278832;28;20083;-65
2023/10/26 16:52:02;;;;;;;12.55;4.18;;;;;;;;;;10267368;28;20072;-65
2023/10/26 16:57:02;;;;;;;17.58;5.05;;;;;;;;;;10266331;28;20072;-65
2023/10/26 17:02:02;;;;;;;14.38;5.22;;;;;;;;;;10269247;28;20077;-66
2023/10/26 17:07:00;;;;;;;13.00;4.32;;;;;;;;;;10282505;28;20061;-65
2023/10/26 17:11:59;;;;;;;10.73;4.15;;;;;;;;;;10304371;28;20068;-65
2023/10/26 17:16:57;;;;;;;12.05;3.50;;;;;;;;;;10297652;28;20092;-65
2023/10/26 17:21:57;;;;;;;13.82;4.15;;;;;;;;;;10292202;28;20620;-66
2023/10/26 17:26:55;;;;;;;9.40;4.22;;;;;;;;;;10287116;28;20072;-66
2023/10/26 17:31:53;;;;;;;12.32;4.05;;;;;;;;;;10284762;28;20072;-66
2023/10/26 17:36:55;;;;;;;14.13;4.80;;;;;;;;;;10283997;28;20064;-65
2023/10/26 17:41:55;;;;;;;19.90;4.82;;;;;;;;;;10282356;28;20072;-65
2023/10/26 17:46:53;;;;;;;11.05;4.07;;;;;;;;;;10270114;28;20075;-65
2023/10/26 17:51:52;;;;;;;10.40;4.60;;;;;;;;;;10286782;28;20556;-66
2023/10/26 17:56:50;;;;;;;13.43;4.88;;;;;;;;;;10287929;28;20068;-66
2023/10/26 18:01:50;;;;;;;13.40;4.13;;;;;;;;;;10294323;28;20084;-65
2023/10/26 18:06:48;;;;;;;13.85;4.78;;;;;;;;;;10278402;28;20107;-67
2023/10/26 18:11:47;;;;;;;11.00;4.55;;;;;;;;;;10285340;28;20083;-65
2023/10/26 18:16:45;;;;;;;16.73;3.80;;;;;;;;;;10279462;28;20088;-65
2023/10/26 18:21:45;;;;;;;11.55;4.43;;;;;;;;;;10279419;28;20079;-64
2023/10/26 18:26:43;;;;;;;12.07;3.85;;;;;;;;;;10275048;28;20068;-64
2023/10/26 18:31:41;;;;;;;14.63;4.40;;;;;;;;;;10271707;28;20080;-65
2023/10/26 18:36:40;;;;;;;20.67;4.20;;;;;;;;;;10265497;28;20290;-65
2023/10/26 18:41:40;;;;;;;11.30;3.72;;;;;;;;;;10279801;28;20747;-66
2023/10/26 18:46:40;;;;;;;14.50;5.13;;;;;;;;;;10275328;28;20603;-66
2023/10/26 18:51:38;;;;;;;11.75;4.78;;;;;;;;;;10282029;28;20561;-66
2023/10/26 18:56:36;;;;;;;13.63;4.50;;;;;;;;;;10277524;28;20073;-65
2023/10/26 19:01:36;;;;;;;11.73;4.10;;;;;;;;;;10287939;28;20473;-65
2023/10/26 19:06:35;;;;;;;10.70;4.10;;;;;;;;;;10277332;28;20092;-66
2023/10/26 19:11:33;;;;;;;11.07;3.60;;;;;;;;;;10282287;28;20079;-64
2023/10/26 19:16:31;;;;;;;12.80;3.70;;;;;;;;;;10287210;28;20502;-66
2023/10/26 19:21:31;;;;;;;19.60;4.50;;;;;;;;;;10273994;28;20080;-65
2023/10/26 19:26:30;;;;;;;8.70;3.70;;;;;;;;;;10276687;28;20465;-66
2023/10/26 19:31:28;;;;;;;10.90;3.22;;;;;;;;;;10267341;28;20467;-64
2023/10/26 19:36:29;;;;;;;13.02;3.72;;;;;;;;;;10266891;28;20071;-65
2023/10/26 19:41:29;;;;;;;8.43;3.42;;;;;;;;;;10276982;28;21314;-66
2023/10/26 19:46:27;;;;;;;14.20;3.30;;;;;;;;;;10261682;28;20072;-64
2023/10/26 19:51:25;;;;;;;12.52;4.88;;;;;;;;;;10277815;28;20084;-65
2023/10/26 19:56:24;;;;;;;8.82;3.60;;;;;;;;;;10282704;28;20083;-66
2023/10/26 20:01:23;;;;;;;14.13;8.43;;;;;;;;;;10286777;28;20068;-67
2023/10/26 20:06:23;;;;;;;11.43;4.90;;;;;;;;;;10283526;28;20064;-67
2023/10/26 20:11:22;;;;;;;12.73;6.22;;;;;;;;;;10289023;28;20075;-66
2023/10/26 20:16:20;;;;;;;13.38;3.83;;;;;;;;;;10286312;28;20162;-65
2023/10/26 20:21:20;;;;;;;9.50;4.53;;;;;;;;;;10282794;28;20513;-64
2023/10/26 20:26:18;;;;;;;18.77;4.80;;;;;;;;;;10269838;28;20072;-66
2023/10/26 20:31:17;;;;;;;11.15;3.10;;;;;;;;;;10278646;28;20515;-66
2023/10/26 20:36:16;;;;;;;10.88;3.05;;;;;;;;;;10281959;28;20544;-66
2023/10/26 20:41:16;;;;;;;7.07;3.10;;;;;;;;;;10281428;28;20079;-66
2023/10/26 20:46:14;;;;;;;17.73;3.92;;;;;;;;;;10287490;28;20071;-66
2023/10/26 20:51:17;;;;;;;11.45;3.50;;;;;;;;;;10291537;28;20610;-65
2023/10/26 20:56:17;;;;;;;5.80;2.85;;;;;;;;;;10260169;28;20077;-66
2023/10/26 21:01:15;;;;;;;15.25;4.38;;;;;;;;;;10262068;28;20451;-66
2023/10/26 21:06:17;;;;;;;12.27;2.97;;;;;;;;;;10263885;28;20073;-65
2023/10/26 21:11:18;;;;;;;9.35;3.00;;;;;;;;;;10260057;28;20777;-65
2023/10/26 21:16:19;;;;;;;8.52;3.63;;;;;;;;;;10254168;28;20092;-65
2023/10/26 21:21:20;;;;;;;8.73;3.75;;;;;;;;;;10260847;28;20079;-65
2023/10/26 21:26:19;;;;;;;7.25;3.42;;;;;;;;;;10261304;28;20072;-65
2023/10/26 21:31:18;;;;;;;12.40;3.92;;;;;;;;;;10255107;28;20072;-65
2023/10/26 21:36:16;;;;;;;3.80;2.47;;;;;;;;;;10253611;28;20085;-65
2023/10/26 21:41:15;;;;;;;8.25;2.92;;;;;;;;;;10261902;28;20100;-65
2023/10/26 21:46:14;;;;;;;11.30;3.38;;;;;;;;;;10261959;28;20065;-66
2023/10/26 21:51:12;;;;;;;9.23;3.75;;;;;;;;;;10258660;28;20514;-66
2023/10/26 21:56:11;;;;;;;12.23;3.47;;;;;;;;;;10257868;28;20071;-66
2023/10/26 22:01:09;;;;;;;9.80;4.28;;;;;;;;;;10259674;28;20080;-66
2023/10/26 22:06:09;;;;;;;7.50;3.30;;;;;;;;;;10257386;28;20068;-66
2023/10/26 22:11:08;;;;;;;10.00;3.15;;;;;;;;;;10259869;28;20080;-66
2023/10/26 22:16:06;;;;;;;8.85;3.17;;;;;;;;;;10260056;28;20081;-66
2023/10/26 22:21:05;;;;;;;12.25;2.72;;;;;;;;;;10265109;28;20077;-66
2023/10/26 22:26:05;;;;;;;8.90;3.08;;;;;;;;;;10259379;28;20069;-66
2023/10/26 22:31:04;;;;;;;13.50;3.15;;;;;;;;;;10263394;28;20075;-66
2023/10/26 22:36:02;;;;;;;11.43;3.30;;;;;;;;;;10258236;28;20156;-65
2023/10/26 22:41:01;;;;;;;9.02;3.22;;;;;;;;;;10258265;28;20073;-66
2023/10/26 22:46:01;;;;;;;8.80;2.83;;;;;;;;;;10259891;28;20073;-66
2023/10/26 22:51:00;;;;;;;10.82;3.25;;;;;;;;;;10253936;28;20065;-66
2023/10/26 22:55:58;;;;;;;10.52;3.65;;;;;;;;;;10257731;28;20069;-66
2023/10/26 23:00:56;;;;;;;15.55;2.85;;;;;;;;;;10258883;28;20458;-66
2023/10/26 23:05:58;;;;;;;8.45;2.80;;;;;;;;;;10260222;28;20060;-66
2023/10/26 23:10:57;;;;;;;11.25;3.55;;;;;;;;;;10257476;28;20454;-65
2023/10/26 23:15:55;;;;;;;10.15;3.22;;;;;;;;;;10263117;28;20080;-66
2023/10/26 23:20:53;;;;;;;9.88;3.08;;;;;;;;;;10258084;28;20534;-66
2023/10/26 23:25:53;;;;;;;7.95;2.53;;;;;;;;;;10257167;28;20517;-66
2023/10/26 23:30:51;;;;;;;7.80;2.75;;;;;;;;;;10257062;28;20079;-65
2023/10/26 23:35:50;;;;;;;8.88;3.33;;;;;;;;;;10257986;28;20065;-65
2023/10/26 23:40:48;;;;;;;5.53;3.13;;;;;;;;;;10256214;28;20068;-66
2023/10/26 23:45:50;;;;;;;8.57;3.75;;;;;;;;;;10255838;28;20072;-65
2023/10/26 23:50:48;;;;;;;11.00;3.58;;;;;;;;;;10255712;28;20079;-66
2023/10/26 23:55:46;;;;;;;8.35;3.33;;;;;;;;;;10256078;28;20084;-65
